sensor_id;sensor_type;location;lat;lon;timestamp;P1;durP1;ratioP1;P2;durP2;ratioP2
9496;SDS011;4786;51.270;4.456;2022-12-18T00:01:16;63.87;;;34.67;;
9496;SDS011;4786;51.270;4.456;2022-12-18T00:03:51;67.23;;;35.33;;
9496;SDS011;4786;51.270;4.456;2022-12-18T00:06:19;58.37;;;35.17;;
9496;SDS011;4786;51.270;4.456;2022-12-18T00:08:47;64.07;;;34.90;;
9496;SDS011;4786;51.270;4.456;2022-12-18T00:11:17;61.47;;;34.80;;
9496;SDS011;4786;51.270;4.456;2022-12-18T00:13:45;57.87;;;33.90;;
9496;SDS011;4786;51.270;4.456;2022-12-18T00:16:15;64.30;;;34.23;;
9496;SDS011;4786;51.270;4.456;2022-12-18T00:18:45;69.27;;;37.77;;
9496;SDS011;4786;51.270;4.456;2022-12-18T00:21:11;65.77;;;36.90;;
9496;SDS011;4786;51.270;4.456;2022-12-18T00:23:39;63.67;;;35.50;;
9496;SDS011;4786;51.270;4.456;2022-12-18T00:26:07;69.93;;;38.27;;
9496;SDS011;4786;51.270;4.456;2022-12-18T00:28:40;66.87;;;37.63;;
9496;SDS011;4786;51.270;4.456;2022-12-18T00:31:08;71.20;;;37.03;;
9496;SDS011;4786;51.270;4.456;2022-12-18T00:33:36;65.57;;;36.50;;
9496;SDS011;4786;51.270;4.456;2022-12-18T00:36:06;70.13;;;37.03;;
9496;SDS011;4786;51.270;4.456;2022-12-18T00:38:35;63.77;;;35.77;;
9496;SDS011;4786;51.270;4.456;2022-12-18T00:41:02;63.27;;;35.03;;
9496;SDS011;4786;51.270;4.456;2022-12-18T00:43:28;61.00;;;34.50;;
9496;SDS011;4786;51.270;4.456;2022-12-18T00:45:53;65.40;;;37.13;;
9496;SDS011;4786;51.270;4.456;2022-12-18T00:48:19;62.80;;;35.70;;
9496;SDS011;4786;51.270;4.456;2022-12-18T00:50:47;66.57;;;36.70;;
9496;SDS011;4786;51.270;4.456;2022-12-18T00:53:13;69.67;;;36.17;;
9496;SDS011;4786;51.270;4.456;2022-12-18T00:55:39;60.13;;;34.90;;
9496;SDS011;4786;51.270;4.456;2022-12-18T00:58:06;58.10;;;33.40;;
9496;SDS011;4786;51.270;4.456;2022-12-18T01:00:32;61.67;;;34.77;;
9496;SDS011;4786;51.270;4.456;2022-12-18T01:02:58;63.93;;;35.43;;
9496;SDS011;4786;51.270;4.456;2022-12-18T01:05:24;59.60;;;34.07;;
9496;SDS011;4786;51.270;4.456;2022-12-18T01:07:50;59.93;;;33.27;;
9496;SDS011;4786;51.270;4.456;2022-12-18T01:10:16;59.67;;;34.67;;
9496;SDS011;4786;51.270;4.456;2022-12-18T01:12:43;59.57;;;34.40;;
9496;SDS011;4786;51.270;4.456;2022-12-18T01:15:09;60.23;;;34.20;;
9496;SDS011;4786;51.270;4.456;2022-12-18T01:17:37;61.23;;;33.97;;
9496;SDS011;4786;51.270;4.456;2022-12-18T01:20:03;65.23;;;35.80;;
9496;SDS011;4786;51.270;4.456;2022-12-18T01:22:30;59.67;;;33.47;;
9496;SDS011;4786;51.270;4.456;2022-12-18T01:24:56;56.47;;;34.27;;
9496;SDS011;4786;51.270;4.456;2022-12-18T01:27:21;62.07;;;33.97;;
9496;SDS011;4786;51.270;4.456;2022-12-18T01:29:47;62.33;;;34.07;;
9496;SDS011;4786;51.270;4.456;2022-12-18T01:32:14;59.73;;;32.80;;
9496;SDS011;4786;51.270;4.456;2022-12-18T01:34:40;57.80;;;31.90;;
9496;SDS011;4786;51.270;4.456;2022-12-18T01:37:06;59.43;;;32.97;;
9496;SDS011;4786;51.270;4.456;2022-12-18T01:39:32;56.63;;;33.53;;
9496;SDS011;4786;51.270;4.456;2022-12-18T01:42:05;58.27;;;32.73;;
9496;SDS011;4786;51.270;4.456;2022-12-18T01:44:56;57.60;;;32.47;;
9496;SDS011;4786;51.270;4.456;2022-12-18T01:47:46;54.27;;;31.67;;
9496;SDS011;4786;51.270;4.456;2022-12-18T01:50:19;57.23;;;31.50;;
9496;SDS011;4786;51.270;4.456;2022-12-18T01:52:51;57.03;;;32.47;;
9496;SDS011;4786;51.270;4.456;2022-12-18T01:55:23;51.40;;;31.33;;
9496;SDS011;4786;51.270;4.456;2022-12-18T01:57:52;51.23;;;30.17;;
9496;SDS011;4786;51.270;4.456;2022-12-18T02:00:20;49.27;;;29.83;;
9496;SDS011;4786;51.270;4.456;2022-12-18T02:02:47;50.50;;;28.97;;
9496;SDS011;4786;51.270;4.456;2022-12-18T02:05:15;49.80;;;29.13;;
9496;SDS011;4786;51.270;4.456;2022-12-18T02:10:30;47.43;;;28.00;;
9496;SDS011;4786;51.270;4.456;2022-12-18T02:16:00;46.17;;;28.10;;
9496;SDS011;4786;51.270;4.456;2022-12-18T02:18:41;48.33;;;27.90;;
9496;SDS011;4786;51.270;4.456;2022-12-18T02:28:49;42.67;;;25.67;;
9496;SDS011;4786;51.270;4.456;2022-12-18T02:31:24;43.43;;;27.17;;
9496;SDS011;4786;51.270;4.456;2022-12-18T02:33:55;46.13;;;28.53;;
9496;SDS011;4786;51.270;4.456;2022-12-18T02:36:25;44.83;;;27.80;;
9496;SDS011;4786;51.270;4.456;2022-12-18T02:38:53;48.00;;;26.83;;
9496;SDS011;4786;51.270;4.456;2022-12-18T02:41:21;45.33;;;27.43;;
9496;SDS011;4786;51.270;4.456;2022-12-18T02:43:49;44.20;;;26.37;;
9496;SDS011;4786;51.270;4.456;2022-12-18T02:49:01;44.73;;;26.37;;
9496;SDS011;4786;51.270;4.456;2022-12-18T03:00:18;43.50;;;25.20;;
9496;SDS011;4786;51.270;4.456;2022-12-18T03:03:02;42.73;;;26.27;;
9496;SDS011;4786;51.270;4.456;2022-12-18T03:06:08;45.40;;;26.27;;
9496;SDS011;4786;51.270;4.456;2022-12-18T03:08:41;42.37;;;25.43;;
9496;SDS011;4786;51.270;4.456;2022-12-18T03:11:10;44.13;;;25.93;;
9496;SDS011;4786;51.270;4.456;2022-12-18T03:16:10;44.67;;;25.97;;
9496;SDS011;4786;51.270;4.456;2022-12-18T03:18:46;42.93;;;25.63;;
9496;SDS011;4786;51.270;4.456;2022-12-18T03:21:20;44.70;;;27.20;;
9496;SDS011;4786;51.270;4.456;2022-12-18T03:23:50;44.83;;;25.87;;
9496;SDS011;4786;51.270;4.456;2022-12-18T03:26:19;42.07;;;25.43;;
9496;SDS011;4786;51.270;4.456;2022-12-18T03:28:51;39.33;;;24.67;;
9496;SDS011;4786;51.270;4.456;2022-12-18T03:31:21;39.83;;;23.97;;
9496;SDS011;4786;51.270;4.456;2022-12-18T03:33:53;39.30;;;25.33;;
9496;SDS011;4786;51.270;4.456;2022-12-18T03:36:20;39.27;;;24.03;;
9496;SDS011;4786;51.270;4.456;2022-12-18T03:38:48;36.93;;;22.53;;
9496;SDS011;4786;51.270;4.456;2022-12-18T03:49:04;36.53;;;23.63;;
9496;SDS011;4786;51.270;4.456;2022-12-18T03:54:42;35.53;;;22.53;;
9496;SDS011;4786;51.270;4.456;2022-12-18T03:57:21;38.83;;;24.37;;
9496;SDS011;4786;51.270;4.456;2022-12-18T03:59:50;39.97;;;24.07;;
9496;SDS011;4786;51.270;4.456;2022-12-18T04:02:19;38.23;;;23.97;;
9496;SDS011;4786;51.270;4.456;2022-12-18T04:04:48;35.20;;;22.73;;
9496;SDS011;4786;51.270;4.456;2022-12-18T04:07:22;37.40;;;23.17;;
9496;SDS011;4786;51.270;4.456;2022-12-18T04:09:49;37.57;;;24.67;;
9496;SDS011;4786;51.270;4.456;2022-12-18T04:12:20;36.03;;;23.77;;
9496;SDS011;4786;51.270;4.456;2022-12-18T04:14:46;39.80;;;24.50;;
9496;SDS011;4786;51.270;4.456;2022-12-18T04:17:11;36.87;;;24.73;;
9496;SDS011;4786;51.270;4.456;2022-12-18T04:19:37;36.70;;;23.30;;
9496;SDS011;4786;51.270;4.456;2022-12-18T04:22:03;37.90;;;24.23;;
9496;SDS011;4786;51.270;4.456;2022-12-18T04:24:29;36.53;;;24.03;;
9496;SDS011;4786;51.270;4.456;2022-12-18T04:26:55;36.87;;;23.30;;
9496;SDS011;4786;51.270;4.456;2022-12-18T04:29:21;36.43;;;22.93;;
9496;SDS011;4786;51.270;4.456;2022-12-18T04:31:47;34.67;;;22.60;;
9496;SDS011;4786;51.270;4.456;2022-12-18T04:34:13;34.97;;;22.33;;
9496;SDS011;4786;51.270;4.456;2022-12-18T04:36:39;36.93;;;24.33;;
9496;SDS011;4786;51.270;4.456;2022-12-18T04:39:05;36.33;;;22.53;;
9496;SDS011;4786;51.270;4.456;2022-12-18T04:41:31;34.77;;;21.10;;
9496;SDS011;4786;51.270;4.456;2022-12-18T04:43:57;37.67;;;23.37;;
9496;SDS011;4786;51.270;4.456;2022-12-18T04:46:23;31.40;;;20.77;;
9496;SDS011;4786;51.270;4.456;2022-12-18T04:48:49;32.40;;;21.07;;
9496;SDS011;4786;51.270;4.456;2022-12-18T04:51:15;31.90;;;21.43;;
9496;SDS011;4786;51.270;4.456;2022-12-18T04:53:40;35.03;;;21.43;;
9496;SDS011;4786;51.270;4.456;2022-12-18T04:56:07;32.27;;;20.97;;
9496;SDS011;4786;51.270;4.456;2022-12-18T04:58:35;34.23;;;21.50;;
9496;SDS011;4786;51.270;4.456;2022-12-18T05:01:01;31.50;;;20.40;;
9496;SDS011;4786;51.270;4.456;2022-12-18T05:03:28;32.63;;;20.23;;
9496;SDS011;4786;51.270;4.456;2022-12-18T05:05:54;32.07;;;20.93;;
9496;SDS011;4786;51.270;4.456;2022-12-18T05:08:20;29.63;;;19.13;;
9496;SDS011;4786;51.270;4.456;2022-12-18T05:10:46;34.97;;;20.87;;
9496;SDS011;4786;51.270;4.456;2022-12-18T05:13:12;34.97;;;21.47;;
9496;SDS011;4786;51.270;4.456;2022-12-18T05:15:37;33.27;;;21.03;;
9496;SDS011;4786;51.270;4.456;2022-12-18T05:18:04;34.77;;;21.60;;
9496;SDS011;4786;51.270;4.456;2022-12-18T05:20:30;30.03;;;20.10;;
9496;SDS011;4786;51.270;4.456;2022-12-18T05:22:56;31.67;;;20.13;;
9496;SDS011;4786;51.270;4.456;2022-12-18T05:25:23;30.77;;;20.87;;
9496;SDS011;4786;51.270;4.456;2022-12-18T05:27:49;33.53;;;20.37;;
9496;SDS011;4786;51.270;4.456;2022-12-18T05:30:15;30.60;;;19.33;;
9496;SDS011;4786;51.270;4.456;2022-12-18T05:32:41;30.43;;;19.93;;
9496;SDS011;4786;51.270;4.456;2022-12-18T05:35:07;27.50;;;18.67;;
9496;SDS011;4786;51.270;4.456;2022-12-18T05:37:34;33.03;;;20.77;;
9496;SDS011;4786;51.270;4.456;2022-12-18T05:40:01;29.93;;;19.93;;
9496;SDS011;4786;51.270;4.456;2022-12-18T05:42:27;31.07;;;19.77;;
9496;SDS011;4786;51.270;4.456;2022-12-18T05:44:53;30.97;;;19.90;;
9496;SDS011;4786;51.270;4.456;2022-12-18T05:47:20;32.70;;;20.23;;
9496;SDS011;4786;51.270;4.456;2022-12-18T05:49:45;34.40;;;21.23;;
9496;SDS011;4786;51.270;4.456;2022-12-18T05:52:11;32.73;;;20.03;;
9496;SDS011;4786;51.270;4.456;2022-12-18T05:54:37;34.07;;;19.57;;
9496;SDS011;4786;51.270;4.456;2022-12-18T05:57:04;29.27;;;19.47;;
9496;SDS011;4786;51.270;4.456;2022-12-18T05:59:29;27.23;;;18.43;;
9496;SDS011;4786;51.270;4.456;2022-12-18T06:01:55;32.43;;;18.93;;
9496;SDS011;4786;51.270;4.456;2022-12-18T06:04:21;26.70;;;18.00;;
9496;SDS011;4786;51.270;4.456;2022-12-18T06:06:47;26.73;;;17.60;;
9496;SDS011;4786;51.270;4.456;2022-12-18T06:09:13;28.50;;;18.10;;
9496;SDS011;4786;51.270;4.456;2022-12-18T06:11:39;28.67;;;18.33;;
9496;SDS011;4786;51.270;4.456;2022-12-18T06:14:05;28.27;;;18.73;;
9496;SDS011;4786;51.270;4.456;2022-12-18T06:16:31;27.03;;;17.43;;
9496;SDS011;4786;51.270;4.456;2022-12-18T06:18:57;30.03;;;18.13;;
9496;SDS011;4786;51.270;4.456;2022-12-18T06:21:25;25.57;;;18.23;;
9496;SDS011;4786;51.270;4.456;2022-12-18T06:23:52;27.07;;;18.20;;
9496;SDS011;4786;51.270;4.456;2022-12-18T06:26:18;27.87;;;18.23;;
9496;SDS011;4786;51.270;4.456;2022-12-18T06:28:44;28.97;;;18.50;;
9496;SDS011;4786;51.270;4.456;2022-12-18T06:31:11;28.10;;;18.37;;
9496;SDS011;4786;51.270;4.456;2022-12-18T06:33:37;23.50;;;17.27;;
9496;SDS011;4786;51.270;4.456;2022-12-18T06:36:04;27.03;;;17.70;;
9496;SDS011;4786;51.270;4.456;2022-12-18T06:38:36;27.17;;;17.67;;
9496;SDS011;4786;51.270;4.456;2022-12-18T06:41:10;25.93;;;17.40;;
9496;SDS011;4786;51.270;4.456;2022-12-18T06:43:39;26.13;;;17.47;;
9496;SDS011;4786;51.270;4.456;2022-12-18T06:46:05;27.83;;;16.10;;
9496;SDS011;4786;51.270;4.456;2022-12-18T06:48:32;23.50;;;16.87;;
9496;SDS011;4786;51.270;4.456;2022-12-18T06:50:58;27.57;;;17.70;;
9496;SDS011;4786;51.270;4.456;2022-12-18T06:53:25;25.57;;;17.00;;
9496;SDS011;4786;51.270;4.456;2022-12-18T06:55:50;26.53;;;17.17;;
9496;SDS011;4786;51.270;4.456;2022-12-18T06:58:17;25.47;;;17.47;;
9496;SDS011;4786;51.270;4.456;2022-12-18T07:00:42;25.67;;;17.03;;
9496;SDS011;4786;51.270;4.456;2022-12-18T07:03:09;26.57;;;18.03;;
9496;SDS011;4786;51.270;4.456;2022-12-18T07:05:39;26.87;;;17.17;;
9496;SDS011;4786;51.270;4.456;2022-12-18T07:08:05;24.00;;;16.57;;
9496;SDS011;4786;51.270;4.456;2022-12-18T07:10:31;25.83;;;17.70;;
9496;SDS011;4786;51.270;4.456;2022-12-18T07:12:57;27.63;;;17.33;;
9496;SDS011;4786;51.270;4.456;2022-12-18T07:15:23;31.53;;;18.50;;
9496;SDS011;4786;51.270;4.456;2022-12-18T07:17:49;30.43;;;19.53;;
9496;SDS011;4786;51.270;4.456;2022-12-18T07:20:15;27.90;;;18.40;;
9496;SDS011;4786;51.270;4.456;2022-12-18T07:22:40;27.07;;;17.60;;
9496;SDS011;4786;51.270;4.456;2022-12-18T07:25:07;25.37;;;17.90;;
9496;SDS011;4786;51.270;4.456;2022-12-18T07:27:33;26.73;;;17.80;;
9496;SDS011;4786;51.270;4.456;2022-12-18T07:29:59;31.97;;;18.87;;
9496;SDS011;4786;51.270;4.456;2022-12-18T07:32:25;24.10;;;16.27;;
9496;SDS011;4786;51.270;4.456;2022-12-18T07:34:51;26.77;;;16.77;;
9496;SDS011;4786;51.270;4.456;2022-12-18T07:37:19;25.10;;;17.03;;
9496;SDS011;4786;51.270;4.456;2022-12-18T07:39:44;26.50;;;17.80;;
9496;SDS011;4786;51.270;4.456;2022-12-18T07:42:10;26.60;;;17.93;;
9496;SDS011;4786;51.270;4.456;2022-12-18T07:44:54;23.17;;;15.87;;
9496;SDS011;4786;51.270;4.456;2022-12-18T07:47:20;26.43;;;17.77;;
9496;SDS011;4786;51.270;4.456;2022-12-18T07:49:46;23.63;;;16.30;;
9496;SDS011;4786;51.270;4.456;2022-12-18T07:52:12;23.30;;;17.00;;
9496;SDS011;4786;51.270;4.456;2022-12-18T07:54:38;24.93;;;16.37;;
9496;SDS011;4786;51.270;4.456;2022-12-18T07:57:05;25.97;;;17.00;;
9496;SDS011;4786;51.270;4.456;2022-12-18T07:59:31;24.20;;;16.37;;
9496;SDS011;4786;51.270;4.456;2022-12-18T08:01:57;24.20;;;16.60;;
9496;SDS011;4786;51.270;4.456;2022-12-18T08:04:23;24.27;;;16.57;;
9496;SDS011;4786;51.270;4.456;2022-12-18T08:06:50;25.50;;;17.23;;
9496;SDS011;4786;51.270;4.456;2022-12-18T08:09:16;24.27;;;16.10;;
9496;SDS011;4786;51.270;4.456;2022-12-18T08:11:42;24.17;;;16.27;;
9496;SDS011;4786;51.270;4.456;2022-12-18T08:14:08;27.67;;;16.70;;
9496;SDS011;4786;51.270;4.456;2022-12-18T08:16:35;26.63;;;16.87;;
9496;SDS011;4786;51.270;4.456;2022-12-18T08:19:01;24.83;;;16.47;;
9496;SDS011;4786;51.270;4.456;2022-12-18T08:21:28;23.57;;;16.43;;
9496;SDS011;4786;51.270;4.456;2022-12-18T08:23:56;22.77;;;16.07;;
9496;SDS011;4786;51.270;4.456;2022-12-18T08:26:24;25.27;;;16.03;;
9496;SDS011;4786;51.270;4.456;2022-12-18T08:28:51;23.80;;;16.33;;
9496;SDS011;4786;51.270;4.456;2022-12-18T08:31:19;24.37;;;16.13;;
9496;SDS011;4786;51.270;4.456;2022-12-18T08:33:45;23.67;;;15.60;;
9496;SDS011;4786;51.270;4.456;2022-12-18T08:36:14;23.07;;;16.60;;
9496;SDS011;4786;51.270;4.456;2022-12-18T08:38:40;22.80;;;15.27;;
9496;SDS011;4786;51.270;4.456;2022-12-18T08:41:07;22.37;;;15.60;;
9496;SDS011;4786;51.270;4.456;2022-12-18T08:43:34;22.87;;;15.97;;
9496;SDS011;4786;51.270;4.456;2022-12-18T08:46:18;19.53;;;14.80;;
9496;SDS011;4786;51.270;4.456;2022-12-18T08:48:45;22.40;;;15.33;;
9496;SDS011;4786;51.270;4.456;2022-12-18T08:51:10;21.53;;;14.63;;
9496;SDS011;4786;51.270;4.456;2022-12-18T08:53:36;23.70;;;15.50;;
9496;SDS011;4786;51.270;4.456;2022-12-18T08:56:05;22.27;;;15.17;;
9496;SDS011;4786;51.270;4.456;2022-12-18T08:58:31;20.13;;;14.63;;
9496;SDS011;4786;51.270;4.456;2022-12-18T09:01:05;22.10;;;14.43;;
9496;SDS011;4786;51.270;4.456;2022-12-18T09:03:34;21.17;;;15.27;;
9496;SDS011;4786;51.270;4.456;2022-12-18T09:06:00;19.63;;;14.47;;
9496;SDS011;4786;51.270;4.456;2022-12-18T09:08:26;22.57;;;15.03;;
9496;SDS011;4786;51.270;4.456;2022-12-18T09:10:52;20.73;;;14.13;;
9496;SDS011;4786;51.270;4.456;2022-12-18T09:13:19;23.57;;;14.97;;
9496;SDS011;4786;51.270;4.456;2022-12-18T09:15:50;22.20;;;14.90;;
9496;SDS011;4786;51.270;4.456;2022-12-18T09:18:19;20.93;;;13.73;;
9496;SDS011;4786;51.270;4.456;2022-12-18T09:20:46;19.27;;;13.93;;
9496;SDS011;4786;51.270;4.456;2022-12-18T09:23:12;21.73;;;15.37;;
9496;SDS011;4786;51.270;4.456;2022-12-18T09:25:39;23.57;;;15.33;;
9496;SDS011;4786;51.270;4.456;2022-12-18T09:28:05;19.87;;;13.40;;
9496;SDS011;4786;51.270;4.456;2022-12-18T09:30:37;19.80;;;13.93;;
9496;SDS011;4786;51.270;4.456;2022-12-18T09:33:03;22.57;;;13.80;;
9496;SDS011;4786;51.270;4.456;2022-12-18T09:35:29;20.60;;;13.37;;
9496;SDS011;4786;51.270;4.456;2022-12-18T09:37:55;18.10;;;12.90;;
9496;SDS011;4786;51.270;4.456;2022-12-18T09:40:22;19.10;;;13.33;;
9496;SDS011;4786;51.270;4.456;2022-12-18T09:42:57;19.53;;;13.93;;
9496;SDS011;4786;51.270;4.456;2022-12-18T09:45:25;19.50;;;13.33;;
9496;SDS011;4786;51.270;4.456;2022-12-18T09:48:00;22.27;;;13.83;;
9496;SDS011;4786;51.270;4.456;2022-12-18T09:50:31;21.70;;;13.67;;
9496;SDS011;4786;51.270;4.456;2022-12-18T09:53:02;19.53;;;14.37;;
9496;SDS011;4786;51.270;4.456;2022-12-18T09:55:42;20.17;;;13.00;;
9496;SDS011;4786;51.270;4.456;2022-12-18T09:58:19;21.53;;;14.00;;
9496;SDS011;4786;51.270;4.456;2022-12-18T10:00:46;19.27;;;13.10;;
9496;SDS011;4786;51.270;4.456;2022-12-18T10:03:13;18.50;;;12.97;;
9496;SDS011;4786;51.270;4.456;2022-12-18T10:05:59;19.27;;;13.20;;
9496;SDS011;4786;51.270;4.456;2022-12-18T10:08:36;17.30;;;12.97;;
9496;SDS011;4786;51.270;4.456;2022-12-18T10:11:21;17.93;;;12.83;;
9496;SDS011;4786;51.270;4.456;2022-12-18T10:14:14;17.33;;;12.13;;
9496;SDS011;4786;51.270;4.456;2022-12-18T10:19:50;19.30;;;12.53;;
9496;SDS011;4786;51.270;4.456;2022-12-18T10:25:01;19.03;;;12.23;;
9496;SDS011;4786;51.270;4.456;2022-12-18T10:27:40;18.97;;;11.67;;
9496;SDS011;4786;51.270;4.456;2022-12-18T10:30:13;19.53;;;12.43;;
9496;SDS011;4786;51.270;4.456;2022-12-18T10:32:40;16.27;;;11.87;;
9496;SDS011;4786;51.270;4.456;2022-12-18T10:35:16;18.20;;;11.93;;
9496;SDS011;4786;51.270;4.456;2022-12-18T10:37:59;19.20;;;12.97;;
9496;SDS011;4786;51.270;4.456;2022-12-18T10:40:50;32.33;;;25.43;;
9496;SDS011;4786;51.270;4.456;2022-12-18T10:43:29;50.77;;;41.13;;
9496;SDS011;4786;51.270;4.456;2022-12-18T10:51:13;26.83;;;22.83;;
9496;SDS011;4786;51.270;4.456;2022-12-18T10:54:05;19.33;;;12.77;;
9496;SDS011;4786;51.270;4.456;2022-12-18T10:56:39;16.73;;;12.27;;
9496;SDS011;4786;51.270;4.456;2022-12-18T10:59:06;16.67;;;12.40;;
9496;SDS011;4786;51.270;4.456;2022-12-18T11:01:47;19.10;;;13.03;;
9496;SDS011;4786;51.270;4.456;2022-12-18T11:04:22;14.97;;;11.67;;
9496;SDS011;4786;51.270;4.456;2022-12-18T11:06:59;18.53;;;11.97;;
9496;SDS011;4786;51.270;4.456;2022-12-18T11:09:37;16.07;;;11.60;;
9496;SDS011;4786;51.270;4.456;2022-12-18T11:12:18;17.20;;;11.50;;
9496;SDS011;4786;51.270;4.456;2022-12-18T11:14:49;14.47;;;11.13;;
9496;SDS011;4786;51.270;4.456;2022-12-18T11:17:32;16.37;;;12.00;;
9496;SDS011;4786;51.270;4.456;2022-12-18T11:22:32;16.57;;;11.33;;
9496;SDS011;4786;51.270;4.456;2022-12-18T11:25:02;17.97;;;12.30;;
9496;SDS011;4786;51.270;4.456;2022-12-18T11:27:31;15.53;;;11.43;;
9496;SDS011;4786;51.270;4.456;2022-12-18T11:32:54;16.20;;;11.57;;
9496;SDS011;4786;51.270;4.456;2022-12-18T11:35:50;17.73;;;13.03;;
9496;SDS011;4786;51.270;4.456;2022-12-18T11:38:32;17.30;;;11.50;;
9496;SDS011;4786;51.270;4.456;2022-12-18T11:43:31;17.83;;;12.43;;
9496;SDS011;4786;51.270;4.456;2022-12-18T11:46:03;14.70;;;11.47;;
9496;SDS011;4786;51.270;4.456;2022-12-18T11:48:38;15.97;;;12.00;;
9496;SDS011;4786;51.270;4.456;2022-12-18T11:51:09;15.97;;;12.23;;
9496;SDS011;4786;51.270;4.456;2022-12-18T11:53:40;16.20;;;12.77;;
9496;SDS011;4786;51.270;4.456;2022-12-18T12:13:07;18.77;;;13.00;;
9496;SDS011;4786;51.270;4.456;2022-12-18T12:15:34;19.03;;;13.43;;
9496;SDS011;4786;51.270;4.456;2022-12-18T12:18:20;16.50;;;12.43;;
9496;SDS011;4786;51.270;4.456;2022-12-18T12:26:23;18.63;;;13.13;;
9496;SDS011;4786;51.270;4.456;2022-12-18T12:39:55;16.63;;;12.80;;
9496;SDS011;4786;51.270;4.456;2022-12-18T12:45:36;15.90;;;12.27;;
9496;SDS011;4786;51.270;4.456;2022-12-18T12:48:19;17.23;;;12.83;;
9496;SDS011;4786;51.270;4.456;2022-12-18T12:50:52;16.40;;;12.30;;
9496;SDS011;4786;51.270;4.456;2022-12-18T12:53:28;16.80;;;12.00;;
9496;SDS011;4786;51.270;4.456;2022-12-18T12:55:59;18.83;;;12.50;;
9496;SDS011;4786;51.270;4.456;2022-12-18T13:01:02;16.43;;;12.63;;
9496;SDS011;4786;51.270;4.456;2022-12-18T13:06:45;18.33;;;13.13;;
9496;SDS011;4786;51.270;4.456;2022-12-18T13:09:14;16.47;;;12.67;;
9496;SDS011;4786;51.270;4.456;2022-12-18T13:11:41;18.17;;;12.97;;
9496;SDS011;4786;51.270;4.456;2022-12-18T13:14:28;18.97;;;14.30;;
9496;SDS011;4786;51.270;4.456;2022-12-18T13:19:39;18.17;;;13.27;;
9496;SDS011;4786;51.270;4.456;2022-12-18T13:22:12;17.03;;;13.33;;
9496;SDS011;4786;51.270;4.456;2022-12-18T13:24:47;16.33;;;11.93;;
9496;SDS011;4786;51.270;4.456;2022-12-18T13:27:58;17.77;;;14.00;;
9496;SDS011;4786;51.270;4.456;2022-12-18T13:35:39;17.90;;;13.57;;
9496;SDS011;4786;51.270;4.456;2022-12-18T13:48:14;20.07;;;14.80;;
9496;SDS011;4786;51.270;4.456;2022-12-18T13:50:42;18.13;;;13.17;;
9496;SDS011;4786;51.270;4.456;2022-12-18T13:53:14;20.90;;;14.87;;
9496;SDS011;4786;51.270;4.456;2022-12-18T13:55:49;19.83;;;13.87;;
9496;SDS011;4786;51.270;4.456;2022-12-18T13:58:16;19.90;;;14.30;;
9496;SDS011;4786;51.270;4.456;2022-12-18T14:00:42;18.80;;;13.37;;
9496;SDS011;4786;51.270;4.456;2022-12-18T14:03:22;20.43;;;14.57;;
9496;SDS011;4786;51.270;4.456;2022-12-18T14:06:01;19.37;;;13.77;;
9496;SDS011;4786;51.270;4.456;2022-12-18T14:08:35;17.83;;;13.63;;
9496;SDS011;4786;51.270;4.456;2022-12-18T14:11:04;21.93;;;14.63;;
9496;SDS011;4786;51.270;4.456;2022-12-18T14:13:33;20.00;;;15.07;;
9496;SDS011;4786;51.270;4.456;2022-12-18T14:16:04;19.13;;;14.20;;
9496;SDS011;4786;51.270;4.456;2022-12-18T14:18:42;23.63;;;15.90;;
9496;SDS011;4786;51.270;4.456;2022-12-18T14:21:15;20.30;;;14.83;;
9496;SDS011;4786;51.270;4.456;2022-12-18T14:23:45;18.40;;;14.87;;
9496;SDS011;4786;51.270;4.456;2022-12-18T14:26:24;19.27;;;14.23;;
9496;SDS011;4786;51.270;4.456;2022-12-18T14:28:54;19.87;;;15.03;;
9496;SDS011;4786;51.270;4.456;2022-12-18T14:31:26;22.07;;;14.53;;
9496;SDS011;4786;51.270;4.456;2022-12-18T14:33:54;19.47;;;14.87;;
9496;SDS011;4786;51.270;4.456;2022-12-18T14:36:21;18.80;;;13.83;;
9496;SDS011;4786;51.270;4.456;2022-12-18T14:38:50;21.87;;;15.03;;
9496;SDS011;4786;51.270;4.456;2022-12-18T14:41:19;18.30;;;14.00;;
9496;SDS011;4786;51.270;4.456;2022-12-18T14:43:51;20.43;;;15.87;;
9496;SDS011;4786;51.270;4.456;2022-12-18T14:48:52;22.30;;;15.70;;
9496;SDS011;4786;51.270;4.456;2022-12-18T14:53:47;22.13;;;15.77;;
9496;SDS011;4786;51.270;4.456;2022-12-18T14:56:20;22.33;;;16.40;;
9496;SDS011;4786;51.270;4.456;2022-12-18T14:58:47;21.43;;;15.53;;
9496;SDS011;4786;51.270;4.456;2022-12-18T15:01:22;21.13;;;16.30;;
9496;SDS011;4786;51.270;4.456;2022-12-18T15:03:51;19.97;;;15.10;;
9496;SDS011;4786;51.270;4.456;2022-12-18T15:06:21;20.77;;;16.30;;
9496;SDS011;4786;51.270;4.456;2022-12-18T15:08:51;20.77;;;15.67;;
9496;SDS011;4786;51.270;4.456;2022-12-18T15:11:28;20.43;;;15.60;;
9496;SDS011;4786;51.270;4.456;2022-12-18T15:13:58;22.70;;;15.27;;
9496;SDS011;4786;51.270;4.456;2022-12-18T15:16:25;20.27;;;15.83;;
9496;SDS011;4786;51.270;4.456;2022-12-18T15:18:51;22.97;;;16.73;;
9496;SDS011;4786;51.270;4.456;2022-12-18T15:21:19;22.80;;;15.97;;
9496;SDS011;4786;51.270;4.456;2022-12-18T15:23:49;21.80;;;16.23;;
9496;SDS011;4786;51.270;4.456;2022-12-18T15:26:17;22.33;;;16.33;;
9496;SDS011;4786;51.270;4.456;2022-12-18T15:36:23;21.83;;;16.40;;
9496;SDS011;4786;51.270;4.456;2022-12-18T15:38:50;21.13;;;16.20;;
9496;SDS011;4786;51.270;4.456;2022-12-18T15:41:18;20.23;;;16.23;;
9496;SDS011;4786;51.270;4.456;2022-12-18T15:43:46;24.20;;;17.23;;
9496;SDS011;4786;51.270;4.456;2022-12-18T15:46:17;20.73;;;16.00;;
9496;SDS011;4786;51.270;4.456;2022-12-18T15:48:45;21.87;;;15.83;;
9496;SDS011;4786;51.270;4.456;2022-12-18T15:51:17;22.70;;;16.80;;
9496;SDS011;4786;51.270;4.456;2022-12-18T15:53:45;24.13;;;17.43;;
9496;SDS011;4786;51.270;4.456;2022-12-18T15:56:13;22.30;;;16.07;;
9496;SDS011;4786;51.270;4.456;2022-12-18T15:58:59;23.50;;;17.23;;
9496;SDS011;4786;51.270;4.456;2022-12-18T16:01:26;20.83;;;16.10;;
9496;SDS011;4786;51.270;4.456;2022-12-18T16:03:55;23.37;;;17.57;;
9496;SDS011;4786;51.270;4.456;2022-12-18T16:06:21;24.13;;;17.17;;
9496;SDS011;4786;51.270;4.456;2022-12-18T16:08:47;23.33;;;17.50;;
9496;SDS011;4786;51.270;4.456;2022-12-18T16:14:02;24.67;;;17.47;;
9496;SDS011;4786;51.270;4.456;2022-12-18T16:16:31;23.87;;;17.93;;
9496;SDS011;4786;51.270;4.456;2022-12-18T16:18:57;26.87;;;18.53;;
9496;SDS011;4786;51.270;4.456;2022-12-18T16:21:23;27.13;;;17.97;;
9496;SDS011;4786;51.270;4.456;2022-12-18T16:23:49;23.13;;;17.67;;
9496;SDS011;4786;51.270;4.456;2022-12-18T16:26:15;26.53;;;18.40;;
9496;SDS011;4786;51.270;4.456;2022-12-18T16:28:41;23.27;;;17.63;;
9496;SDS011;4786;51.270;4.456;2022-12-18T16:31:06;24.70;;;17.70;;
9496;SDS011;4786;51.270;4.456;2022-12-18T16:33:35;24.20;;;17.93;;
9496;SDS011;4786;51.270;4.456;2022-12-18T16:36:01;25.40;;;17.70;;
9496;SDS011;4786;51.270;4.456;2022-12-18T16:38:28;24.17;;;17.87;;
9496;SDS011;4786;51.270;4.456;2022-12-18T16:40:54;28.10;;;19.87;;
9496;SDS011;4786;51.270;4.456;2022-12-18T16:43:38;25.60;;;19.30;;
9496;SDS011;4786;51.270;4.456;2022-12-18T16:46:04;23.73;;;17.83;;
9496;SDS011;4786;51.270;4.456;2022-12-18T16:48:30;28.10;;;19.80;;
9496;SDS011;4786;51.270;4.456;2022-12-18T16:51:03;27.73;;;18.30;;
9496;SDS011;4786;51.270;4.456;2022-12-18T16:53:31;26.30;;;19.63;;
9496;SDS011;4786;51.270;4.456;2022-12-18T16:55:57;27.30;;;19.17;;
9496;SDS011;4786;51.270;4.456;2022-12-18T16:58:23;26.50;;;18.53;;
9496;SDS011;4786;51.270;4.456;2022-12-18T17:00:50;25.60;;;19.00;;
9496;SDS011;4786;51.270;4.456;2022-12-18T17:03:15;26.57;;;18.77;;
9496;SDS011;4786;51.270;4.456;2022-12-18T17:05:41;28.20;;;19.77;;
9496;SDS011;4786;51.270;4.456;2022-12-18T17:08:06;26.47;;;18.80;;
9496;SDS011;4786;51.270;4.456;2022-12-18T17:10:35;23.83;;;18.70;;
9496;SDS011;4786;51.270;4.456;2022-12-18T17:13:01;26.80;;;20.50;;
9496;SDS011;4786;51.270;4.456;2022-12-18T17:15:27;28.03;;;19.70;;